createdAt,value
2023-04-18T00:00:15.608Z,87259.84
2023-04-18T00:02:42.914Z,87263.81
2023-04-18T00:05:10.563Z,87257.50
2023-04-18T00:07:38.529Z,87261.97
2023-04-18T00:10:07.241Z,87264.94
2023-04-18T00:12:34.558Z,87257.38
2023-04-18T00:15:03.586Z,87263.72
2023-04-18T00:17:31.455Z,87259.56
2023-04-18T00:19:59.132Z,87264.78
2023-04-18T00:22:26.399Z,87260.25
2023-04-18T00:24:53.685Z,87255.31
2023-04-18T00:27:21.896Z,87257.84
2023-04-18T00:29:49.214Z,87258.84
2023-04-18T00:32:17.196Z,87253.84
2023-04-18T00:34:44.493Z,87253.97
2023-04-18T00:37:11.664Z,87245.72
2023-04-18T00:39:39.001Z,87245.31
2023-04-18T00:42:06.632Z,87252.72
2023-04-18T00:44:33.989Z,87247.03
2023-04-18T00:47:01.303Z,87242.81
2023-04-18T00:49:28.729Z,87244.31
2023-04-18T00:51:56.880Z,87247.22
2023-04-18T00:54:26.700Z,87253.91
2023-04-18T00:56:54.161Z,87255.16
2023-04-18T00:59:21.683Z,87251.44
2023-04-18T01:01:48.991Z,87254.38
2023-04-18T01:04:17.395Z,87256.84
2023-04-18T01:06:45.000Z,87242.53
2023-04-18T01:09:13.604Z,87250.38
2023-04-18T01:11:40.931Z,87247.84
2023-04-18T01:14:08.972Z,87248.53
2023-04-18T01:16:36.619Z,87246.00
2023-04-18T01:19:05.210Z,87252.75
2023-04-18T01:21:33.814Z,87248.28
2023-04-18T01:24:08.468Z,87249.69
2023-04-18T01:26:35.720Z,87244.06
2023-04-18T01:29:03.132Z,87246.97
2023-04-18T01:31:30.691Z,87243.16
2023-04-18T01:33:58.085Z,87245.84
2023-04-18T01:36:25.488Z,87244.66
2023-04-18T01:38:52.843Z,87246.50
2023-04-18T01:41:20.089Z,87239.28
2023-04-18T01:43:47.402Z,87237.00
2023-04-18T01:46:14.885Z,87235.16
2023-04-18T01:48:45.278Z,87241.88
2023-04-18T01:51:13.025Z,87236.66
2023-04-18T01:53:40.262Z,87245.94
2023-04-18T01:56:07.612Z,87237.44
2023-04-18T01:58:34.891Z,87243.00
2023-04-18T02:01:03.172Z,87235.59
2023-04-18T02:03:30.798Z,87236.59
2023-04-18T02:05:58.263Z,87238.63
2023-04-18T02:08:25.714Z,87235.66
2023-04-18T02:10:53.075Z,87243.84
2023-04-18T02:13:20.222Z,87244.25
2023-04-18T02:15:47.599Z,87237.09
2023-04-18T02:18:15.787Z,87240.66
2023-04-18T02:20:43.262Z,87248.88
2023-04-18T02:23:10.755Z,87247.03
2023-04-18T02:25:37.960Z,87233.47
2023-04-18T02:28:05.394Z,87234.66
2023-04-18T02:30:32.820Z,87239.88
2023-04-18T02:33:00.043Z,87244.25
2023-04-18T02:35:28.067Z,87242.66
2023-04-18T02:37:55.596Z,87243.66
2023-04-18T02:40:22.855Z,87241.41
2023-04-18T02:42:50.084Z,87239.47
2023-04-18T02:45:17.420Z,87243.91
2023-04-18T02:47:54.458Z,87243.84
2023-04-18T02:50:24.659Z,87246.88
2023-04-18T02:52:52.045Z,87249.13
2023-04-18T02:55:19.406Z,87242.06
2023-04-18T02:57:46.638Z,87241.97
2023-04-18T03:00:14.517Z,87250.13
2023-04-18T03:02:41.895Z,87248.03
2023-04-18T03:05:09.527Z,87249.13
2023-04-18T03:07:36.752Z,87245.25
2023-04-18T03:10:04.287Z,87234.06
2023-04-18T03:12:31.557Z,87244.84
2023-04-18T03:14:58.835Z,87236.25
2023-04-18T03:17:26.578Z,87228.84
2023-04-18T03:19:53.810Z,87233.66
2023-04-18T03:22:21.128Z,87225.41
2023-04-18T03:24:48.473Z,87229.84
2023-04-18T03:27:15.879Z,87227.59
2023-04-18T03:29:43.055Z,87228.69
2023-04-18T03:32:10.350Z,87225.22
2023-04-18T03:34:37.601Z,87222.19
2023-04-18T03:37:04.840Z,87219.06
2023-04-18T03:39:32.049Z,87224.94
2023-04-18T03:41:59.628Z,87224.22
2023-04-18T03:44:26.860Z,87229.75
2023-04-18T03:46:54.243Z,87222.91
2023-04-18T03:49:21.595Z,87227.72
2023-04-18T03:51:48.943Z,87225.88
2023-04-18T03:54:19.298Z,87226.22
2023-04-18T03:56:46.851Z,87227.94
2023-04-18T03:59:14.078Z,87229.41
2023-04-18T04:01:41.344Z,87228.94
2023-04-18T04:04:08.942Z,87236.03
2023-04-18T04:06:39.138Z,87237.03
2023-04-18T04:09:06.502Z,87238.75
2023-04-18T04:11:33.940Z,87247.25
2023-04-18T04:14:01.246Z,87240.09
2023-04-18T04:16:29.063Z,87244.22
2023-04-18T04:18:56.415Z,87244.97
2023-04-18T04:21:23.619Z,87240.75
2023-04-18T04:23:50.928Z,87242.50
2023-04-18T04:26:18.186Z,87236.13
2023-04-18T04:28:45.570Z,87245.34
2023-04-18T04:31:12.743Z,87250.81
2023-04-18T04:33:40.005Z,87250.38
2023-04-18T04:36:08.272Z,87252.53
2023-04-18T04:38:38.575Z,87250.81
2023-04-18T04:41:06.662Z,87252.22
2023-04-18T04:43:34.330Z,87253.72
2023-04-18T04:46:03.950Z,87252.22
2023-04-18T04:48:31.232Z,87253.72
2023-04-18T04:51:00.724Z,87254.50
2023-04-18T04:53:29.752Z,87256.66
2023-04-18T04:55:58.430Z,87248.09
2023-04-18T04:58:25.944Z,87253.72
2023-04-18T05:00:53.257Z,87257.22
2023-04-18T05:03:21.136Z,87251.25
2023-04-18T05:05:48.985Z,87248.63
2023-04-18T05:08:16.129Z,87251.88
2023-04-18T05:10:43.392Z,87263.06
2023-04-18T05:13:10.635Z,87259.38
2023-04-18T05:15:38.002Z,87260.66
2023-04-18T05:18:05.631Z,87256.63
2023-04-18T05:20:33.177Z,87256.63
2023-04-18T05:23:00.428Z,87264.13
2023-04-18T05:25:27.647Z,87265.19
2023-04-18T05:27:55.271Z,87260.44
2023-04-18T05:30:22.594Z,87260.84
2023-04-18T05:32:50.125Z,87266.28
2023-04-18T05:35:17.531Z,87264.47
2023-04-18T05:37:44.846Z,87266.94
2023-04-18T05:40:13.252Z,87261.84
2023-04-18T05:42:40.833Z,87275.72
2023-04-18T05:45:08.702Z,87271.47
2023-04-18T05:47:36.014Z,87275.56
2023-04-18T05:50:03.474Z,87271.91
2023-04-18T05:52:30.737Z,87278.38
2023-04-18T05:54:57.959Z,87283.25
2023-04-18T05:57:25.238Z,87281.41
2023-04-18T05:59:52.423Z,87280.41
2023-04-18T06:02:19.735Z,87279.41
2023-04-18T06:04:47.266Z,87280.69
2023-04-18T06:07:14.896Z,87280.22
2023-04-18T06:09:42.169Z,87282.78
2023-04-18T06:12:10.041Z,87277.72
2023-04-18T06:14:37.274Z,87284.63
2023-04-18T06:17:06.641Z,87281.44
2023-04-18T06:19:33.927Z,87282.03
2023-04-18T06:22:01.317Z,87276.56
2023-04-18T06:24:30.179Z,87274.13
2023-04-18T06:26:58.558Z,87271.69
2023-04-18T06:29:26.037Z,87271.47
2023-04-18T06:31:53.295Z,87267.47
2023-04-18T06:34:20.625Z,87273.19
2023-04-18T06:36:48.207Z,87272.69
2023-04-18T06:39:15.501Z,87272.50
2023-04-18T06:41:42.689Z,87268.63
2023-04-18T06:44:09.851Z,87266.53
2023-04-18T06:46:37.163Z,87261.56
2023-04-18T06:49:04.481Z,87259.53
2023-04-18T06:51:31.727Z,87259.78
2023-04-18T06:53:58.922Z,87266.72
2023-04-18T06:56:26.679Z,87260.94
2023-04-18T06:58:54.154Z,87262.66
2023-04-18T07:01:21.415Z,87254.31
2023-04-18T07:03:48.826Z,87255.59
2023-04-18T07:06:16.317Z,87250.59
2023-04-18T07:08:43.808Z,87253.75
2023-04-18T07:11:11.830Z,87255.78
2023-04-18T07:13:39.045Z,87244.34
2023-04-18T07:16:06.986Z,87244.50
2023-04-18T07:18:37.984Z,87246.16
2023-04-18T07:21:06.519Z,87242.19
2023-04-18T07:23:33.945Z,87244.59
2023-04-18T07:26:01.511Z,87241.72
2023-04-18T07:28:29.724Z,87239.63
2023-04-18T07:30:57.144Z,87237.81
2023-04-18T07:33:25.268Z,87235.69
2023-04-18T07:35:52.652Z,87241.44
2023-04-18T07:38:20.113Z,87235.22
2023-04-18T07:40:55.951Z,87235.31
2023-04-18T07:43:23.566Z,87231.66
2023-04-18T07:45:52.820Z,87234.09
2023-04-18T07:48:21.398Z,87233.13
2023-04-18T07:50:51.647Z,87234.75
2023-04-18T07:53:19.265Z,87237.44
2023-04-18T07:55:47.013Z,87239.47
2023-04-18T07:58:14.539Z,87241.78
2023-04-18T08:00:42.914Z,87238.47
2023-04-18T08:03:11.233Z,87233.72
2023-04-18T08:05:40.619Z,87226.25
2023-04-18T08:08:10.905Z,87236.13
2023-04-18T08:10:38.496Z,87235.09
2023-04-18T08:13:06.760Z,87232.16
2023-04-18T08:15:34.397Z,87229.59
2023-04-18T08:18:02.075Z,87230.78
2023-04-18T08:20:29.321Z,87235.00
2023-04-18T08:23:07.691Z,87228.66
2023-04-18T08:25:36.921Z,87230.66
2023-04-18T08:28:04.583Z,87231.13
2023-04-18T08:30:31.902Z,87226.69
2023-04-18T08:33:04.208Z,87227.47
2023-04-18T08:35:31.655Z,87223.03
2023-04-18T08:37:59.148Z,87227.22
2023-04-18T08:40:26.865Z,87226.16
2023-04-18T08:42:55.578Z,87228.47
2023-04-18T08:45:22.843Z,87221.75
2023-04-18T08:47:50.232Z,87216.91
2023-04-18T08:50:17.543Z,87226.34
2023-04-18T08:52:50.831Z,87226.78
2023-04-18T08:55:18.158Z,87226.44
2023-04-18T08:57:45.476Z,87224.97
2023-04-18T09:00:14.105Z,87229.16
2023-04-18T09:02:43.685Z,87240.50
2023-04-18T09:05:20.034Z,87236.41
2023-04-18T09:07:49.962Z,87237.19
2023-04-18T09:10:35.263Z,87236.88
2023-04-18T09:13:03.977Z,87241.78
2023-04-18T09:15:31.544Z,87236.94
2023-04-18T09:18:09.476Z,87242.22
2023-04-18T09:20:40.458Z,87240.75
2023-04-18T09:23:11.149Z,87235.50
2023-04-18T09:25:45.880Z,87239.69
2023-04-18T09:28:25.128Z,87229.16
2023-04-18T09:30:53.223Z,87234.41
2023-04-18T09:33:32.372Z,87226.91
2023-04-18T09:36:24.455Z,87224.66
2023-04-18T09:38:56.269Z,87229.56
2023-04-18T09:41:24.642Z,87219.38
2023-04-18T09:44:13.539Z,87217.09
2023-04-18T09:46:45.228Z,87212.22
2023-04-18T09:49:14.955Z,87214.84
2023-04-18T09:51:44.744Z,87218.63
2023-04-18T09:54:16.769Z,87222.03
2023-04-18T09:56:49.654Z,87222.41
2023-04-18T09:59:34.276Z,87212.19
2023-04-18T10:02:05.187Z,87213.34
2023-04-18T10:04:34.342Z,87213.69
2023-04-18T10:07:02.784Z,87216.34
2023-04-18T10:09:34.711Z,87217.06
2023-04-18T10:12:02.834Z,87206.53
2023-04-18T10:14:33.500Z,87215.53
2023-04-18T10:17:01.167Z,87213.28
2023-04-18T10:19:29.841Z,87217.78
2023-04-18T10:24:53.596Z,87221.47
2023-04-18T10:27:49.277Z,87217.66
2023-04-18T10:30:18.614Z,87211.94
2023-04-18T10:32:48.778Z,87213.41
2023-04-18T10:35:16.169Z,87219.81
2023-04-18T10:37:51.535Z,87207.59
2023-04-18T10:40:33.895Z,87215.75
2023-04-18T10:43:01.750Z,87202.75
2023-04-18T10:45:30.641Z,87201.09
2023-04-18T10:48:26.409Z,87189.47
2023-04-18T10:51:17.800Z,87195.47
2023-04-18T10:53:59.544Z,87191.19
2023-04-18T10:56:26.948Z,87186.63
2023-04-18T10:58:54.803Z,87184.63
2023-04-18T11:01:38.091Z,87182.31
2023-04-18T11:04:13.146Z,87174.44
2023-04-18T11:06:52.195Z,87174.16
2023-04-18T11:09:19.351Z,87170.28
2023-04-18T11:11:46.746Z,87168.22
2023-04-18T11:14:14.566Z,87169.06
2023-04-18T11:16:42.190Z,87161.47
2023-04-18T11:19:23.732Z,87162.47
2023-04-18T11:21:53.200Z,87155.81
2023-04-18T11:24:24.410Z,87148.63
2023-04-18T11:26:54.518Z,87164.53
2023-04-18T11:29:21.876Z,87159.81
2023-04-18T11:31:55.828Z,87161.66
2023-04-18T11:34:33.365Z,87159.09
2023-04-18T11:37:06.993Z,87151.78
2023-04-18T11:39:40.797Z,87156.66
2023-04-18T11:42:09.026Z,87159.22
2023-04-18T11:44:36.469Z,87156.25
2023-04-18T11:47:03.698Z,87156.38
2023-04-18T11:49:32.673Z,87154.78
2023-04-18T11:52:00.423Z,87154.94
2023-04-18T11:54:45.031Z,87149.47
2023-04-18T11:57:30.066Z,87145.13
2023-04-18T12:00:01.298Z,87150.19
2023-04-18T12:02:46.544Z,87144.44
2023-04-18T12:05:31.978Z,87144.09
2023-04-18T12:08:21.437Z,87139.63
2023-04-18T12:10:51.200Z,87145.09
2023-04-18T12:13:40.002Z,87141.34
2023-04-18T12:18:35.004Z,87142.56
2023-04-18T12:21:05.414Z,87134.06
2023-04-18T12:23:39.531Z,87130.88
2023-04-18T12:26:15.715Z,87131.44
2023-04-18T12:28:46.994Z,87132.47
2023-04-18T12:31:14.210Z,87129.06
2023-04-18T12:33:41.526Z,87132.06
2023-04-18T12:36:09.963Z,87131.31
2023-04-18T12:38:37.597Z,87128.09
2023-04-18T12:41:05.084Z,87128.53
2023-04-18T12:43:32.214Z,87130.84
2023-04-18T12:45:59.965Z,87133.94
2023-04-18T12:48:28.481Z,87137.22
2023-04-18T12:50:55.695Z,87136.53
2023-04-18T12:53:23.118Z,87126.78
2023-04-18T12:55:50.658Z,87143.47
2023-04-18T12:58:18.918Z,87142.91
2023-04-18T13:00:46.677Z,87149.13
2023-04-18T13:03:14.014Z,87144.06
2023-04-18T13:05:41.505Z,87139.84
2023-04-18T13:08:17.129Z,87145.97
2023-04-18T13:10:46.471Z,87149.19
2023-04-18T13:13:14.259Z,87141.84
2023-04-18T13:15:41.838Z,87143.13
2023-04-18T13:18:09.079Z,87141.50
2023-04-18T13:20:36.420Z,87143.47
2023-04-18T13:23:03.770Z,87139.38
2023-04-18T13:25:31.241Z,87135.03
2023-04-18T13:27:58.665Z,87138.63
2023-04-18T13:30:26.244Z,87142.66
2023-04-18T13:32:53.758Z,87134.78
2023-04-18T13:35:21.772Z,87137.41
2023-04-18T13:37:49.217Z,87138.03
2023-04-18T13:40:16.377Z,87132.47
2023-04-18T13:42:43.588Z,87137.22
2023-04-18T13:45:11.524Z,87142.16
2023-04-18T13:47:38.876Z,87136.84
2023-04-18T13:50:07.428Z,87135.06
2023-04-18T13:52:34.637Z,87139.50
2023-04-18T13:55:02.253Z,87135.50
2023-04-18T13:57:29.648Z,87142.13
2023-04-18T13:59:56.802Z,87135.56
2023-04-18T14:02:24.125Z,87142.19
2023-04-18T14:04:51.758Z,87136.31
2023-04-18T14:07:18.960Z,87142.25
2023-04-18T14:09:46.140Z,87142.97
2023-04-18T14:12:22.824Z,87138.84
2023-04-18T14:14:50.406Z,87141.84
2023-04-18T14:17:17.674Z,87142.63
2023-04-18T14:19:45.127Z,87134.00
2023-04-18T14:22:12.315Z,87152.06
2023-04-18T14:24:39.678Z,87149.16
2023-04-18T14:27:07.114Z,87156.38
2023-04-18T14:29:36.590Z,87155.16
2023-04-18T14:32:04.019Z,87153.63
2023-04-18T14:34:32.733Z,87153.63
2023-04-18T14:37:01.301Z,87150.63
2023-04-18T14:39:28.445Z,87146.94
2023-04-18T14:41:55.669Z,87146.19
2023-04-18T14:44:22.902Z,87152.25
2023-04-18T14:46:50.210Z,87146.16
2023-04-18T14:49:17.366Z,87150.72
2023-04-18T14:51:44.543Z,87147.63
2023-04-18T14:54:11.686Z,87148.69
2023-04-18T14:56:38.990Z,87157.25
2023-04-18T14:59:06.277Z,87156.44
2023-04-18T15:01:33.495Z,87155.75
2023-04-18T15:04:00.988Z,87151.63
2023-04-18T15:06:28.312Z,87151.94
2023-04-18T15:08:55.445Z,87146.19
2023-04-18T15:11:22.655Z,87154.09
2023-04-18T15:13:50.047Z,87145.81
2023-04-18T15:16:17.281Z,87148.84
2023-04-18T15:18:44.810Z,87149.59
2023-04-18T15:21:12.196Z,87152.66
2023-04-18T15:23:39.341Z,87151.88
2023-04-18T15:26:06.641Z,87154.19
2023-04-18T15:28:33.828Z,87158.41
2023-04-18T15:31:01.021Z,87156.16
2023-04-18T15:33:28.403Z,87156.94
2023-04-18T15:35:56.145Z,87150.53
2023-04-18T15:38:23.496Z,87155.56
2023-04-18T15:40:50.689Z,87150.63
2023-04-18T15:43:17.903Z,87155.56
2023-04-18T15:45:45.122Z,87161.22
2023-04-18T15:48:12.367Z,87157.41
2023-04-18T15:50:39.880Z,87160.41
2023-04-18T15:53:07.048Z,87156.16
2023-04-18T15:55:34.445Z,87154.53
2023-04-18T15:58:01.627Z,87153.16
2023-04-18T16:00:28.884Z,87158.31
2023-04-18T16:02:56.267Z,87156.44
2023-04-18T16:05:23.650Z,87163.22
2023-04-18T16:07:50.992Z,87163.69
2023-04-18T16:10:18.161Z,87169.84
2023-04-18T16:12:45.875Z,87166.97
2023-04-18T16:15:13.559Z,87170.38
2023-04-18T16:17:40.759Z,87166.97
2023-04-18T16:20:08.646Z,87172.69
2023-04-18T16:22:36.544Z,87164.78
2023-04-18T16:25:05.103Z,87171.75
2023-04-18T16:27:33.043Z,87168.72
2023-04-18T16:30:00.654Z,87175.19
2023-04-18T16:32:27.907Z,87178.25
2023-04-18T16:34:55.084Z,87174.53
2023-04-18T16:37:22.201Z,87178.75
2023-04-18T16:39:49.735Z,87175.72
2023-04-18T16:42:16.959Z,87168.59
2023-04-18T16:44:44.111Z,87179.44
2023-04-18T16:47:11.382Z,87176.78
2023-04-18T16:49:38.634Z,87173.75
2023-04-18T16:52:05.828Z,87177.59
2023-04-18T16:54:32.999Z,87182.94
2023-04-18T16:57:00.254Z,87179.53
2023-04-18T16:59:27.888Z,87183.38
2023-04-18T17:01:55.808Z,87182.31
2023-04-18T17:04:23.027Z,87177.03
2023-04-18T17:06:52.104Z,87180.84
2023-04-18T17:09:19.662Z,87183.59
2023-04-18T17:11:46.880Z,87192.69
2023-04-18T17:14:14.906Z,87187.88
2023-04-18T17:16:42.999Z,87184.91
2023-04-18T17:19:10.949Z,87189.09
2023-04-18T17:21:38.808Z,87197.94
2023-04-18T17:24:06.436Z,87197.25
2023-04-18T17:26:36.396Z,87198.84
2023-04-18T17:29:03.928Z,87201.91
2023-04-18T17:31:32.163Z,87205.34
2023-04-18T17:34:00.424Z,87201.63
2023-04-18T17:36:28.278Z,87208.88
2023-04-18T17:38:56.306Z,87208.19
2023-04-18T17:41:23.530Z,87206.75
2023-04-18T17:43:51.260Z,87215.16
2023-04-18T17:46:18.753Z,87219.78
2023-04-18T17:48:46.356Z,87227.81
2023-04-18T17:51:13.869Z,87231.25
2023-04-18T17:53:41.197Z,87227.91
2023-04-18T17:56:09.676Z,87234.78
2023-04-18T17:58:37.293Z,87240.91
2023-04-18T18:01:13.388Z,87238.34
2023-04-18T18:03:41.312Z,87240.69
2023-04-18T18:06:10.942Z,87244.13
2023-04-18T18:08:38.626Z,87254.38
2023-04-18T18:11:06.120Z,87251.72
2023-04-18T18:13:34.274Z,87260.50
2023-04-18T18:16:03.147Z,87256.38
2023-04-18T18:18:30.343Z,87268.09
2023-04-18T18:20:59.620Z,87271.91
2023-04-18T18:23:27.821Z,87269.31
2023-04-18T18:25:55.254Z,87277.28
2023-04-18T18:28:23.068Z,87279.94
2023-04-18T18:30:50.466Z,87282.22
2023-04-18T18:33:18.087Z,87287.88
2023-04-18T18:35:45.806Z,87285.63
2023-04-18T18:38:13.026Z,87291.69
2023-04-18T18:40:40.150Z,87300.38
2023-04-18T18:43:08.288Z,87302.25
2023-04-18T18:45:35.413Z,87300.41
2023-04-18T18:48:02.869Z,87303.78
2023-04-18T18:50:30.516Z,87305.69
2023-04-18T18:52:59.489Z,87310.97
2023-04-18T18:55:27.228Z,87316.66
2023-04-18T18:57:54.624Z,87314.00
2023-04-18T19:00:22.182Z,87321.16
2023-04-18T19:02:49.510Z,87320.78
2023-04-18T19:05:16.894Z,87329.50
2023-04-18T19:07:44.287Z,87323.81
2023-04-18T19:10:11.743Z,87325.69
2023-04-18T19:12:39.140Z,87322.69
2023-04-18T19:15:07.314Z,87327.97
2023-04-18T19:17:34.668Z,87334.38
2023-04-18T19:20:03.477Z,87340.03
2023-04-18T19:22:31.310Z,87342.31
2023-04-18T19:25:01.437Z,87343.81
2023-04-18T19:27:28.657Z,87347.22
2023-04-18T19:29:56.742Z,87343.81
2023-04-18T19:32:24.388Z,87346.09
2023-04-18T19:34:52.903Z,87343.81
2023-04-18T19:37:20.533Z,87341.94
2023-04-18T19:39:52.299Z,87343.81
2023-04-18T19:42:19.522Z,87352.13
2023-04-18T19:44:46.936Z,87346.78
2023-04-18T19:47:14.113Z,87351.34
2023-04-18T19:49:41.281Z,87350.94
2023-04-18T19:52:08.486Z,87354.31
2023-04-18T19:54:35.675Z,87347.56
2023-04-18T19:57:02.900Z,87352.44
2023-04-18T19:59:30.493Z,87357.72
2023-04-18T20:02:00.535Z,87354.69
2023-04-18T20:04:29.890Z,87359.56
2023-04-18T20:06:57.045Z,87358.44
2023-04-18T20:09:24.909Z,87363.00
2023-04-18T20:11:52.057Z,87369.38
2023-04-18T20:14:19.437Z,87370.88
2023-04-18T20:16:47.757Z,87370.88
2023-04-18T20:19:18.014Z,87366.38
2023-04-18T20:21:45.882Z,87368.25
2023-04-18T20:24:13.438Z,87362.94
2023-04-18T20:26:41.132Z,87374.25
2023-04-18T20:29:08.787Z,87372.38
2023-04-18T20:31:35.966Z,87373.88
2023-04-18T20:34:03.094Z,87378.00
2023-04-18T20:36:30.333Z,87385.53
2023-04-18T20:38:57.562Z,87379.84
2023-04-18T20:41:25.131Z,87383.22
2023-04-18T20:43:52.600Z,87383.97
2023-04-18T20:46:20.363Z,87381.69
2023-04-18T20:48:47.574Z,87391.13
2023-04-18T20:51:14.859Z,87384.72
2023-04-18T20:53:42.191Z,87383.94
2023-04-18T20:56:09.319Z,87393.38
2023-04-18T20:58:36.485Z,87391.09
2023-04-18T21:01:03.681Z,87391.09
2023-04-18T21:03:31.034Z,87391.44
2023-04-18T21:05:58.371Z,87398.22
2023-04-18T21:08:26.129Z,87401.25
2023-04-18T21:10:53.670Z,87399.75
2023-04-18T21:13:20.875Z,87402.00
2023-04-18T21:15:48.017Z,87405.34
2023-04-18T21:18:15.344Z,87404.59
2023-04-18T21:20:42.564Z,87404.97
2023-04-18T21:23:09.879Z,87405.34
2023-04-18T21:25:37.281Z,87407.97
2023-04-18T21:28:04.870Z,87409.88
2023-04-18T21:30:32.107Z,87405.69
2023-04-18T21:32:59.382Z,87403.06
2023-04-18T21:35:26.655Z,87415.09
2023-04-18T21:37:53.861Z,87409.44
2023-04-18T21:40:21.184Z,87415.06
2023-04-18T21:42:49.902Z,87406.00
2023-04-18T21:45:18.281Z,87423.69
2023-04-18T21:47:45.601Z,87419.53
2023-04-18T21:50:12.838Z,87422.94
2023-04-18T21:52:40.318Z,87424.41
2023-04-18T21:55:08.279Z,87419.91
2023-04-18T21:57:35.882Z,87419.50
2023-04-18T22:00:04.040Z,87424.03
2023-04-18T22:02:31.604Z,87424.72
2023-04-18T22:04:58.941Z,87419.09
2023-04-18T22:07:26.169Z,87419.03
2023-04-18T22:09:53.342Z,87417.50
2023-04-18T22:12:20.440Z,87416.34
2023-04-18T22:14:47.552Z,87417.84
2023-04-18T22:17:15.038Z,87418.22
2023-04-18T22:19:42.245Z,87419.69
2023-04-18T22:22:09.528Z,87415.91
2023-04-18T22:24:36.676Z,87416.94
2023-04-18T22:27:03.944Z,87416.94
2023-04-18T22:29:31.134Z,87410.91
2023-04-18T22:31:58.255Z,87412.38
2023-04-18T22:34:25.424Z,87407.44
2023-04-18T22:36:52.640Z,87409.31
2023-04-18T22:39:19.943Z,87408.16
2023-04-18T22:41:47.303Z,87408.09
2023-04-18T22:44:14.801Z,87414.88
2023-04-18T22:46:42.658Z,87405.00
2023-04-18T22:49:10.163Z,87413.97
2023-04-18T22:51:37.297Z,87406.09
2023-04-18T22:54:04.840Z,87410.97
2023-04-18T22:56:32.006Z,87415.06
2023-04-18T22:58:59.163Z,87409.75
2023-04-18T23:01:26.556Z,87413.84
2023-04-18T23:03:53.916Z,87411.16
2023-04-18T23:06:21.246Z,87406.97
2023-04-18T23:08:48.546Z,87411.78
2023-04-18T23:11:15.661Z,87405.72
2023-04-18T23:13:42.857Z,87406.34
2023-04-18T23:16:10.124Z,87412.69
2023-04-18T23:18:37.310Z,87407.41
2023-04-18T23:21:04.573Z,87406.59
2023-04-18T23:23:31.979Z,87411.06
2023-04-18T23:25:59.173Z,87406.09
2023-04-18T23:28:26.388Z,87412.81
2023-04-18T23:30:53.568Z,87414.97
2023-04-18T23:33:20.850Z,87413.44
2023-04-18T23:35:47.962Z,87414.56
2023-04-18T23:38:15.213Z,87416.06
2023-04-18T23:40:42.653Z,87412.69
2023-04-18T23:43:09.862Z,87412.94
2023-04-18T23:45:37.011Z,87413.69
2023-04-18T23:48:04.421Z,87413.22
2023-04-18T23:50:31.559Z,87408.69
2023-04-18T23:52:58.822Z,87413.97
2023-04-18T23:55:26.159Z,87405.63
2023-04-18T23:57:53.527Z,87410.03
